Time;durP1;ratioP1;P1;durP2;ratioP2;P2;SDS_P1;SDS_P2;PMS_P1;PMS_P2;Temp;Humidity;BMP_temperature;BMP_pressure;BME280_temperature;BME280_humidity;BME280_pressure;Samples;Min_cycle;Max_cycle;Signal;HPM_P1;HPM_P2
2023/08/19 00:00:29;;;;;;;;;;;;;;;20.85;85.23;101597.42;107952;1264;59540;-86
2023/08/19 00:03:16;;;;;;;;;;;;;;;20.84;85.33;101596.89;107803;1260;125485;-86
2023/08/19 00:05:43;;;;;;;;;;;;;;;20.81;85.05;101599.93;107710;1263;72999;-87
2023/08/19 00:08:10;;;;;;;;;;;;;;;20.76;84.96;101599.60;107795;1260;67212;-86
2023/08/19 00:10:37;;;;;;;;;;;;;;;20.73;84.94;101596.93;107675;1261;125302;-85
2023/08/19 00:13:04;;;;;;;;;;;;;;;20.69;84.97;101593.92;107564;1261;59799;-85
2023/08/19 00:15:31;;;;;;;;;;;;;;;20.66;85.00;101588.05;107423;1265;126275;-85
2023/08/19 00:18:00;;;;;;;;;;;;;;;20.64;85.19;101584.48;107883;1261;74744;-85
2023/08/19 00:20:28;;;;;;;;;;;;;;;20.64;85.27;101582.16;107673;1263;65794;-85
2023/08/19 00:22:56;;;;;;;;;;;;;;;20.65;85.60;101585.38;107668;1260;125503;-86
2023/08/19 00:25:24;;;;;;;;;;;;;;;20.65;85.77;101585.73;108097;1260;61181;-85
2023/08/19 00:27:51;;;;;;;;;;;;;;;20.67;85.86;101586.09;108430;1261;125620;-85
2023/08/19 00:30:18;;;;;;;;;;;;;;;20.69;86.00;101588.75;108536;1260;74733;-85
2023/08/19 00:32:45;;;;;;;;;;;;;;;20.70;86.06;101591.42;108523;1260;66643;-86
2023/08/19 00:35:13;;;;;;;;;;;;;;;20.72;86.10;101601.05;108604;1261;125237;-86
2023/08/19 00:37:40;;;;;;;;;;;;;;;20.74;86.12;101593.73;108294;1260;59750;-84
2023/08/19 00:40:09;;;;;;;;;;;;;;;20.77;86.11;101596.21;107559;1261;125881;-84
2023/08/19 00:42:36;;;;;;;;;;;;;;;20.78;86.11;101589.78;107349;1261;73607;-83
2023/08/19 00:45:03;;;;;;;;;;;;;;;20.81;86.28;101586.02;107426;1260;65818;-85
2023/08/19 00:47:30;;;;;;;;;;;;;;;20.82;86.21;101587.27;107436;1264;125690;-84
2023/08/19 00:49:57;;;;;;;;;;;;;;;20.84;86.29;101589.23;107725;1264;61152;-84
2023/08/19 00:52:24;;;;;;;;;;;;;;;20.87;86.25;101586.91;107630;1262;126869;-85
2023/08/19 00:54:51;;;;;;;;;;;;;;;20.88;86.32;101579.75;107643;1260;75769;-86
2023/08/19 00:57:18;;;;;;;;;;;;;;;20.89;86.34;101574.75;107406;1262;123899;-85
2023/08/19 00:59:45;;;;;;;;;;;;;;;20.90;86.30;101576.17;107606;1260;73154;-85
2023/08/19 01:02:12;;;;;;;;;;;;;;;20.91;86.26;101577.59;107803;1262;61229;-86
2023/08/19 01:04:38;;;;;;;;;;;;;;;20.89;86.29;101575.65;108019;1260;125362;-86
2023/08/19 01:07:11;;;;;;;;;;;;;;;20.88;86.34;101576.00;108050;1263;75141;-85
2023/08/19 01:09:38;;;;;;;;;;;;;;;20.86;86.26;101575.48;107862;1264;125265;-86
2023/08/19 01:12:16;;;;;;;;;;;;;;;20.84;86.29;101574.61;108083;1260;71807;-85
2023/08/19 01:15:04;;;;;;;;;;;;;;;20.84;86.43;101574.60;108042;1260;61275;-85
2023/08/19 01:17:31;;;;;;;;;;;;;;;20.83;86.40;101569.07;107851;1260;125010;-87
2023/08/19 01:19:57;;;;;;;;;;;;;;;20.82;86.38;101562.66;107896;1260;74606;-85
2023/08/19 01:22:45;;;;;;;;;;;;;;;20.78;86.46;101564.98;107998;1260;124912;-85
2023/08/19 01:25:13;;;;;;;;;;;;;;;20.78;86.45;101573.56;107887;1260;71417;-86
2023/08/19 01:27:39;;;;;;;;;;;;;;;20.78;86.48;101572.66;107653;1264;126545;-85
2023/08/19 01:30:07;;;;;;;;;;;;;;;20.76;86.35;101561.97;107797;1261;61083;-84
2023/08/19 01:32:34;;;;;;;;;;;;;;;20.73;86.43;101561.63;108054;1264;75651;-85
2023/08/19 01:35:00;;;;;;;;;;;;;;;20.71;86.65;101564.67;107992;1264;125784;-85
2023/08/19 01:37:37;;;;;;;;;;;;;;;20.69;86.74;101571.27;107831;1260;71245;-85
2023/08/19 01:40:04;;;;;;;;;;;;;;;20.67;86.75;101563.06;107659;1259;124992;-85
2023/08/19 01:42:31;;;;;;;;;;;;;;;20.64;86.86;101563.63;107732;1262;59631;-85
2023/08/19 01:44:58;;;;;;;;;;;;;;;20.63;87.01;101568.43;107722;1260;73514;-84
2023/08/19 01:47:25;;;;;;;;;;;;;;;20.60;87.08;101567.73;107693;1261;125149;-84
2023/08/19 01:49:52;;;;;;;;;;;;;;;20.57;87.21;101562.54;107548;1262;72974;-85
2023/08/19 01:52:19;;;;;;;;;;;;;;;20.53;87.13;101565.59;107678;1262;129414;-85
2023/08/19 01:54:46;;;;;;;;;;;;;;;20.49;87.21;101563.45;107657;1261;61384;-86
2023/08/19 01:57:12;;;;;;;;;;;;;;;20.46;87.41;101560.80;107366;1267;125596;-86
2023/08/19 01:59:39;;;;;;;;;;;;;;;20.42;87.57;101559.02;107771;1264;68661;-85
2023/08/19 02:02:06;;;;;;;;;;;;;;;20.40;87.64;101555.29;107871;1262;72976;-85
2023/08/19 02:04:33;;;;;;;;;;;;;;;20.37;87.63;101557.08;107822;1264;124406;-87
2023/08/19 02:07:00;;;;;;;;;;;;;;;20.34;87.75;101556.01;107774;1262;59845;-86
2023/08/19 02:09:28;;;;;;;;;;;;;;;20.30;87.80;101554.59;108274;1259;125429;-86
2023/08/19 02:11:56;;;;;;;;;;;;;;;20.28;87.89;101552.46;108236;1262;66901;-86
2023/08/19 02:14:23;;;;;;;;;;;;;;;20.26;87.90;101554.79;108421;1260;71483;-86
2023/08/19 02:16:50;;;;;;;;;;;;;;;20.23;88.02;101557.11;108399;1261;125486;-86
2023/08/19 02:19:17;;;;;;;;;;;;;;;20.21;88.28;101561.74;108879;1261;59263;-86
2023/08/19 02:21:44;;;;;;;;;;;;;;;20.19;88.34;101565.30;108822;1260;123784;-85
2023/08/19 02:24:18;;;;;;;;;;;;;;;20.18;88.46;101562.30;108902;1261;65874;-85
2023/08/19 02:26:45;;;;;;;;;;;;;;;20.17;88.62;101559.42;108945;1261;72603;-85
2023/08/19 02:29:31;;;;;;;;;;;;;;;20.17;88.59;101558.01;108609;1262;124006;-85
2023/08/19 02:31:59;;;;;;;;;;;;;;;20.15;88.74;101555.16;107323;1262;59964;-84
2023/08/19 02:34:26;;;;;;;;;;;;;;;20.13;88.81;101558.19;107530;1259;124857;-85
2023/08/19 02:36:53;;;;;;;;;;;;;;;20.11;88.84;101558.02;107387;1263;66854;-85
2023/08/19 02:39:20;;;;;;;;;;;;;;;20.09;88.79;101556.95;107633;1259;125738;-86
2023/08/19 02:41:47;;;;;;;;;;;;;;;20.08;88.92;101557.13;107948;1260;59654;-83
2023/08/19 02:44:13;;;;;;;;;;;;;;;20.06;88.98;101559.28;107981;1264;59430;-83
2023/08/19 02:46:40;;;;;;;;;;;;;;;20.05;89.09;101557.51;107694;1262;126412;-84
2023/08/19 02:49:07;;;;;;;;;;;;;;;20.04;89.18;101557.68;107577;1262;66078;-83
2023/08/19 02:51:34;;;;;;;;;;;;;;;20.05;89.32;101560.52;107666;1262;125598;-84
2023/08/19 02:54:01;;;;;;;;;;;;;;;20.07;89.51;101556.95;107932;1262;61196;-84
2023/08/19 02:56:27;;;;;;;;;;;;;;;20.09;89.55;101554.82;107597;1263;59731;-85
2023/08/19 02:58:54;;;;;;;;;;;;;;;20.10;89.66;101552.33;107477;1261;124874;-85
2023/08/19 03:01:21;;;;;;;;;;;;;;;20.10;89.68;101550.02;107603;1262;65745;-84
2023/08/19 03:03:48;;;;;;;;;;;;;;;20.11;89.72;101548.40;107326;1259;126050;-84
2023/08/19 03:06:15;;;;;;;;;;;;;;;20.13;89.77;101544.29;107627;1261;61112;-84
2023/08/19 03:08:42;;;;;;;;;;;;;;;20.17;89.90;101545.00;107629;1260;61397;-85
2023/08/19 03:11:09;;;;;;;;;;;;;;;20.21;89.99;101546.95;107540;1260;126430;-84
2023/08/19 03:13:36;;;;;;;;;;;;;;;20.24;90.02;101542.13;107577;1262;65484;-85
2023/08/19 03:16:03;;;;;;;;;;;;;;;20.28;90.10;101546.22;107603;1264;125708;-84
2023/08/19 03:18:29;;;;;;;;;;;;;;;20.34;90.18;101543.89;107796;1262;59859;-84
2023/08/19 03:20:57;;;;;;;;;;;;;;;20.40;90.23;101544.77;107773;1259;59868;-84
2023/08/19 03:23:27;;;;;;;;;;;;;;;20.46;90.32;101541.36;107533;1262;125208;-85
2023/08/19 03:25:54;;;;;;;;;;;;;;;20.52;90.15;101545.08;107744;1262;66834;-85
2023/08/19 03:28:21;;;;;;;;;;;;;;;20.53;90.07;101541.70;107852;1260;125350;-84
2023/08/19 03:30:48;;;;;;;;;;;;;;;20.54;90.06;101537.95;107776;1261;61318;-85
2023/08/19 03:33:14;;;;;;;;;;;;;;;20.57;90.15;101541.14;107738;1266;126442;-86
2023/08/19 03:35:41;;;;;;;;;;;;;;;20.60;90.21;101543.11;107825;1261;72207;-86
2023/08/19 03:38:08;;;;;;;;;;;;;;;20.65;90.37;101536.34;107531;1262;65821;-86
2023/08/19 03:40:36;;;;;;;;;;;;;;;20.66;90.01;101534.00;107234;1267;125098;-86
2023/08/19 03:43:03;;;;;;;;;;;;;;;20.66;90.11;101535.98;107685;1262;61226;-85
2023/08/19 03:45:32;;;;;;;;;;;;;;;20.68;90.04;101535.23;107419;1264;125314;-85
2023/08/19 03:47:59;;;;;;;;;;;;;;;20.67;90.01;101530.98;107544;1265;73635;-86
2023/08/19 03:50:26;;;;;;;;;;;;;;;20.67;89.99;101531.86;108291;1262;65840;-86
2023/08/19 03:52:53;;;;;;;;;;;;;;;20.68;90.23;101535.42;108070;1260;126076;-86
2023/08/19 03:55:20;;;;;;;;;;;;;;;20.71;90.31;101541.13;108197;1261;61124;-86
2023/08/19 03:57:47;;;;;;;;;;;;;;;20.76;90.43;101540.92;108089;1262;123970;-86
2023/08/19 04:00:14;;;;;;;;;;;;;;;20.81;90.42;101538.59;108399;1262;73478;-86
2023/08/19 04:02:41;;;;;;;;;;;;;;;20.86;90.39;101539.98;107864;1266;67123;-85
2023/08/19 04:05:08;;;;;;;;;;;;;;;20.86;90.23;101535.70;107644;1262;125532;-85
2023/08/19 04:07:35;;;;;;;;;;;;;;;20.86;90.24;101537.11;107658;1260;60381;-86
2023/08/19 04:10:03;;;;;;;;;;;;;;;20.87;90.31;101541.58;107762;1267;126184;-85
2023/08/19 04:12:30;;;;;;;;;;;;;;;20.86;90.36;101544.61;108027;1262;73375;-86
2023/08/19 04:14:57;;;;;;;;;;;;;;;20.90;90.60;101541.38;107875;1260;65965;-86
2023/08/19 04:17:24;;;;;;;;;;;;;;;20.93;90.60;101540.65;108015;1260;126944;-86
2023/08/19 04:19:51;;;;;;;;;;;;;;;20.98;90.78;101535.64;107864;1262;61242;-86
2023/08/19 04:22:19;;;;;;;;;;;;;;;21.01;90.53;101537.05;107607;1263;125623;-87
2023/08/19 04:24:50;;;;;;;;;;;;;;;21.02;90.50;101538.48;107453;1263;75341;-86
2023/08/19 04:27:17;;;;;;;;;;;;;;;21.00;90.47;101539.55;107562;1261;126272;-85
2023/08/19 04:29:44;;;;;;;;;;;;;;;21.01;90.54;101546.86;107670;1266;73376;-84
2023/08/19 04:32:11;;;;;;;;;;;;;;;21.05;90.82;101548.09;107558;1262;60114;-85
2023/08/19 04:34:39;;;;;;;;;;;;;;;21.09;90.68;101546.29;107294;1262;125164;-86
2023/08/19 04:37:06;;;;;;;;;;;;;;;21.10;90.54;101545.57;107885;1261;73479;-93
2023/08/19 04:39:35;;;;;;;;;;;;;;;21.12;90.81;101545.73;107592;1265;125275;-86
2023/08/19 04:42:02;;;;;;;;;;;;;;;21.14;90.56;101545.35;107741;1263;72720;-86
2023/08/19 04:44:29;;;;;;;;;;;;;;;21.18;90.77;101549.98;107756;1265;61083;-86
2023/08/19 04:46:56;;;;;;;;;;;;;;;21.19;90.63;101551.23;108170;1261;126357;-85
2023/08/19 04:49:23;;;;;;;;;;;;;;;21.25;90.86;101553.52;108523;1262;75671;-85
2023/08/19 04:51:50;;;;;;;;;;;;;;;21.30;90.93;101551.86;108483;1264;126147;-86
2023/08/19 04:54:17;;;;;;;;;;;;;;;21.36;90.82;101554.14;108468;1259;73036;-85
2023/08/19 04:56:43;;;;;;;;;;;;;;;21.41;90.64;101554.29;108476;1262;59624;-86
2023/08/19 04:59:10;;;;;;;;;;;;;;;21.44;90.57;101559.27;108577;1262;125511;-86
2023/08/19 05:01:37;;;;;;;;;;;;;;;21.49;90.41;101562.46;108656;1259;75234;-86
2023/08/19 05:04:04;;;;;;;;;;;;;;;21.54;90.45;101562.45;108465;1262;126554;-86
2023/08/19 05:06:31;;;;;;;;;;;;;;;21.59;90.31;101561.33;108618;1262;71888;-86
2023/08/19 05:08:58;;;;;;;;;;;;;;;21.60;90.03;101557.40;108539;1262;60135;-86
2023/08/19 05:11:25;;;;;;;;;;;;;;;21.62;90.04;101558.62;108597;1263;124598;-85
2023/08/19 05:13:51;;;;;;;;;;;;;;;21.62;89.80;101561.30;108733;1262;74688;-85
2023/08/19 05:16:18;;;;;;;;;;;;;;;21.66;89.95;101561.45;108530;1264;125742;-86
2023/08/19 05:18:49;;;;;;;;;;;;;;;21.71;90.17;101563.20;108630;1262;73128;-85
2023/08/19 05:21:16;;;;;;;;;;;;;;;21.83;90.18;101568.65;108586;1259;125249;-86
2023/08/19 05:23:43;;;;;;;;;;;;;;;21.88;89.81;101568.77;108586;1265;60651;-85
2023/08/19 05:26:10;;;;;;;;;;;;;;;21.92;89.79;101573.55;108567;1259;74844;-86
2023/08/19 05:28:37;;;;;;;;;;;;;;;21.98;89.70;101581.91;108485;1266;125337;-87
2023/08/19 05:31:04;;;;;;;;;;;;;;;22.06;89.87;101588.98;108572;1260;72743;-87
2023/08/19 05:33:31;;;;;;;;;;;;;;;22.14;89.52;101590.52;108587;1259;124892;-87
2023/08/19 05:35:57;;;;;;;;;;;;;;;22.14;89.05;101589.61;108598;1259;60855;-87
2023/08/19 05:38:24;;;;;;;;;;;;;;;22.11;88.88;101590.00;108594;1259;74396;-87
2023/08/19 05:40:51;;;;;;;;;;;;;;;22.09;88.86;101596.10;108600;1263;124942;-86
2023/08/19 05:43:18;;;;;;;;;;;;;;;22.13;89.10;101596.08;108554;1262;73073;-87
2023/08/19 05:45:46;;;;;;;;;;;;;;;22.13;88.77;101597.31;108603;1262;127077;-86
2023/08/19 05:48:12;;;;;;;;;;;;;;;22.17;88.78;101600.86;108685;1259;59567;-87
2023/08/19 05:50:40;;;;;;;;;;;;;;;22.14;88.48;101599.98;108538;1259;74691;-86
2023/08/19 05:53:06;;;;;;;;;;;;;;;22.14;88.75;101603.20;108479;1265;125210;-87
2023/08/19 05:55:33;;;;;;;;;;;;;;;22.18;88.73;101596.55;108811;1260;72248;-87
2023/08/19 05:58:00;;;;;;;;;;;;;;;22.20;88.64;101599.21;108403;1259;125554;-87
2023/08/19 06:00:27;;;;;;;;;;;;;;;22.20;88.56;101601.02;108771;1263;61118;-88
2023/08/19 06:02:54;;;;;;;;;;;;;;;22.22;88.56;101602.95;108780;1259;74661;-88
2023/08/19 06:05:21;;;;;;;;;;;;;;;22.23;88.54;101606.70;108688;1263;124613;-87
2023/08/19 06:07:48;;;;;;;;;;;;;;;22.26;88.46;101606.70;108708;1263;71575;-87
2023/08/19 06:10:16;;;;;;;;;;;;;;;22.28;88.56;101610.77;108525;1265;124792;-89
2023/08/19 06:15:43;;;;;;;;;;;;;;;22.28;87.95;101616.70;107219;1262;125117;-87
2023/08/19 06:18:32;;;;;;;;;;;;;;;22.26;88.22;101613.13;107158;1266;65532;-84
2023/08/19 06:21:11;;;;;;;;;;;;;;;22.33;88.14;101617.73;107306;1261;72704;-93
2023/08/19 06:23:46;;;;;;;;;;;;;;;22.38;88.32;101618.58;107365;1262;61279;-85
2023/08/19 06:26:32;;;;;;;;;;;;;;;22.50;88.34;101619.34;106944;1262;61048;-85
2023/08/19 06:28:59;;;;;;;;;;;;;;;22.60;88.19;101624.61;106944;1264;125378;-85
2023/08/19 06:35:29;;;;;;;;;;;;;;;;;;;;;
2023/08/19 06:41:26;;;;;;;;;;;;;;;23.01;86.72;101616.95;107181;1264;124904;-86
2023/08/19 06:44:32;;;;;;;;;;;;;;;23.08;86.75;101612.06;107205;1261;74862;-86
2023/08/19 06:47:32;;;;;;;;;;;;;;;23.12;86.31;101616.67;107133;1261;124896;-86
2023/08/19 06:50:06;;;;;;;;;;;;;;;23.17;86.38;101622.51;107322;1262;72575;-83
2023/08/19 06:53:13;;;;;;;;;;;;;;;;;;;;;
2023/08/19 06:56:21;;;;;;;;;;;;;;;23.50;86.11;101621.31;107574;1260;59562;-83
2023/08/19 06:58:54;;;;;;;;;;;;;;;23.69;86.01;101628.19;106855;1262;124024;-83
2023/08/19 07:01:29;;;;;;;;;;;;;;;23.80;85.26;101631.81;107053;1261;65817;-88
2023/08/19 07:03:59;;;;;;;;;;;;;;;23.88;85.04;101635.64;107054;1262;125019;-93
2023/08/19 07:06:26;;;;;;;;;;;;;;;23.98;84.71;101634.05;106911;1261;61187;-87
2023/08/19 07:08:58;;;;;;;;;;;;;;;24.02;84.26;101634.52;106892;1262;61437;-89
2023/08/19 07:11:51;;;;;;;;;;;;;;;24.10;84.12;101633.12;106973;1262;125044;-92
2023/08/19 07:14:18;;;;;;;;;;;;;;;24.20;83.71;101632.05;107041;1261;67046;-92
2023/08/19 07:17:20;;;;;;;;;;;;;;;24.21;83.38;101635.44;106849;1262;124924;-87
2023/08/19 07:19:47;;;;;;;;;;;;;;;24.33;83.27;101635.23;107264;1262;61279;-90
2023/08/19 07:22:21;;;;;;;;;;;;;;;24.40;83.04;101636.53;107186;1261;125143;-92
2023/08/19 07:25:02;;;;;;;;;;;;;;;24.53;82.85;101638.84;107080;1261;72391;-91
2023/08/19 07:34:14;;;;;;;;;;;;;;;25.02;81.99;101640.20;108232;1258;80902;-89
2023/08/19 07:36:42;;;;;;;;;;;;;;;25.19;81.51;101641.65;107763;1261;61264;-92
2023/08/19 07:39:30;;;;;;;;;;;;;;;25.31;81.09;101645.89;107684;1262;74143;-90
2023/08/19 07:41:58;;;;;;;;;;;;;;;25.36;80.35;101655.65;107843;1262;66810;-89
2023/08/19 07:44:25;;;;;;;;;;;;;;;25.40;80.46;101655.92;107840;1265;73292;-89
2023/08/19 07:46:52;;;;;;;;;;;;;;;25.47;79.99;101659.37;107627;1262;126159;-88
2023/08/19 07:49:19;;;;;;;;;;;;;;;25.51;79.75;101655.69;107485;1267;61306;-88
2023/08/19 07:51:45;;;;;;;;;;;;;;;25.59;79.69;101653.36;107500;1261;124903;-88
2023/08/19 07:54:12;;;;;;;;;;;;;;;25.77;79.74;101653.30;107967;1261;67762;-88
2023/08/19 07:56:39;;;;;;;;;;;;;;;25.99;79.55;101652.77;107956;1261;73280;-90
2023/08/19 07:59:06;;;;;;;;;;;;;;;26.20;79.31;101652.98;108394;1261;126249;-90
2023/08/19 08:01:33;;;;;;;;;;;;;;;26.37;78.76;101648.02;108512;1260;59498;-90
2023/08/19 08:04:00;;;;;;;;;;;;;;;26.63;78.75;101650.94;108543;1262;125557;-89
2023/08/19 08:06:27;;;;;;;;;;;;;;;26.89;78.08;101648.79;108522;1261;67750;-90
2023/08/19 08:08:54;;;;;;;;;;;;;;;27.04;77.36;101649.05;108493;1261;64135;-88
2023/08/19 08:11:21;;;;;;;;;;;;;;;27.11;76.48;101652.66;108465;1265;125699;-89
2023/08/19 08:13:48;;;;;;;;;;;;;;;27.06;75.88;101649.02;107791;1266;61131;-88
2023/08/19 08:16:14;;;;;;;;;;;;;;;27.04;75.87;101647.09;107851;1267;126320;-88
2023/08/19 08:18:41;;;;;;;;;;;;;;;27.13;75.77;101647.89;107746;1264;59707;-88
2023/08/19 08:21:08;;;;;;;;;;;;;;;27.29;75.74;101647.63;107505;1262;63574;-90
2023/08/19 08:23:35;;;;;;;;;;;;;;;27.45;75.16;101648.75;107360;1261;124821;-88
2023/08/19 08:26:05;;;;;;;;;;;;;;;27.54;74.75;101648.46;107331;1266;61172;-88
2023/08/19 08:28:32;;;;;;;;;;;;;;;27.61;74.26;101647.55;107449;1262;126326;-89
2023/08/19 08:30:59;;;;;;;;;;;;;;;27.65;74.03;101650.30;107798;1260;61136;-89
2023/08/19 08:33:25;;;;;;;;;;;;;;;27.68;73.54;101649.65;107940;1262;71841;-88
2023/08/19 08:35:52;;;;;;;;;;;;;;;27.66;73.39;101653.16;107814;1261;59721;-87
2023/08/19 08:38:19;;;;;;;;;;;;;;;27.71;73.29;101651.91;107810;1261;61348;-88
2023/08/19 08:40:46;;;;;;;;;;;;;;;27.80;73.11;101647.11;107564;1265;124857;-90
2023/08/19 08:43:13;;;;;;;;;;;;;;;27.84;72.75;101647.14;107675;1262;59737;-90
2023/08/19 08:45:40;;;;;;;;;;;;;;;27.89;72.70;101649.35;107833;1262;125124;-88
2023/08/19 08:48:07;;;;;;;;;;;;;;;28.02;72.47;101641.34;107888;1262;61203;-87
2023/08/19 08:50:34;;;;;;;;;;;;;;;28.08;71.84;101643.84;107948;1260;61114;-88
2023/08/19 08:53:01;;;;;;;;;;;;;;;28.08;71.62;101643.48;107880;1265;125051;-90
2023/08/19 08:55:29;;;;;;;;;;;;;;;28.11;71.59;101641.96;107655;1266;61233;-89
2023/08/19 08:57:55;;;;;;;;;;;;;;;28.20;71.39;101642.56;107532;1265;125301;-89
2023/08/19 09:00:22;;;;;;;;;;;;;;;28.29;71.11;101640.61;107903;1262;59597;-89
2023/08/19 09:02:49;;;;;;;;;;;;;;;28.39;70.93;101643.88;107649;1260;59602;-89
2023/08/19 09:05:18;;;;;;;;;;;;;;;28.41;70.33;101641.81;107523;1261;124523;-89
2023/08/19 09:07:45;;;;;;;;;;;;;;;28.31;70.08;101643.06;107484;1266;61290;-89
2023/08/19 09:10:13;;;;;;;;;;;;;;;28.30;70.11;101641.46;107730;1261;125097;-89
2023/08/19 09:12:42;;;;;;;;;;;;;;;28.37;69.96;101641.96;107969;1264;61145;-89
2023/08/19 09:15:10;;;;;;;;;;;;;;;28.44;69.86;101644.78;107956;1261;59420;-89
2023/08/19 09:17:38;;;;;;;;;;;;;;;28.52;69.64;101646.12;107900;1261;124938;-88
2023/08/19 09:20:06;;;;;;;;;;;;;;;28.59;69.54;101642.64;107898;1260;61242;-87
2023/08/19 09:22:34;;;;;;;;;;;;;;;28.61;69.12;101644.75;107627;1262;124183;-90
2023/08/19 09:25:05;;;;;;;;;;;;;;;28.56;68.97;101644.75;107815;1259;80139;-85
2023/08/19 09:27:33;;;;;;;;;;;;;;;28.47;68.78;101644.68;107394;1258;124385;-84
2023/08/19 09:33:22;;;;;;;;;;;;;;;28.46;68.75;101644.14;107391;1261;61310;-84
2023/08/19 09:36:22;;;;;;;;;;;;;;;28.50;68.79;101643.48;107230;1264;124375;-88
2023/08/19 09:38:58;;;;;;;;;;;;;;;28.49;68.55;101644.80;107509;1261;61226;-85
2023/08/19 09:41:35;;;;;;;;;;;;;;;28.30;68.45;101643.10;107663;1259;124778;-87
2023/08/19 09:44:40;;;;;;;;;;;;;;;28.15;68.55;101644.52;107138;1266;64810;-88
2023/08/19 09:47:09;;;;;;;;;;;;;;;27.98;68.52;101646.52;106826;1262;124873;-85
2023/08/19 09:49:37;;;;;;;;;;;;;;;27.86;68.60;101651.98;106919;1266;64559;-84
2023/08/19 09:55:45;;;;;;;;;;;;;;;27.86;69.20;101651.59;107295;1261;59509;-87
2023/08/19 09:58:18;;;;;;;;;;;;;;;27.95;69.34;101651.89;107104;1261;124722;-85
2023/08/19 10:00:46;;;;;;;;;;;;;;;28.07;69.24;101647.67;106922;1260;61254;-86
2023/08/19 10:03:13;;;;;;;;;;;;;;;28.12;69.01;101641.55;107088;1259;64093;-89
2023/08/19 10:06:00;;;;;;;;;;;;;;;28.09;68.90;101641.48;106915;1260;124909;-90
2023/08/19 10:08:29;;;;;;;;;;;;;;;28.01;68.73;101642.11;106937;1266;61193;-85
2023/08/19 10:11:04;;;;;;;;;;;;;;;27.94;68.64;101645.06;106850;1260;124405;-83
2023/08/19 10:13:33;;;;;;;;;;;;;;;27.79;68.47;101639.02;106772;1264;61138;-86
2023/08/19 10:16:02;;;;;;;;;;;;;;;27.64;68.69;101633.20;106720;1259;123443;-84
2023/08/19 10:18:36;;;;;;;;;;;;;;;27.60;68.82;101628.66;106777;1261;61240;-84
2023/08/19 10:21:28;;;;;;;;;;;;;;;27.56;68.91;101632.37;106741;1260;60611;-85
2023/08/19 10:24:27;;;;;;;;;;;;;;;27.51;69.00;101629.10;106823;1259;73101;-86
2023/08/19 10:31:08;;;;;;;;;;;;;;;27.50;69.11;101630.19;106767;1266;64601;-88
2023/08/19 10:34:20;;;;;;;;;;;;;;;27.49;68.96;101631.88;106874;1261;124497;-86
2023/08/19 10:37:42;;;;;;;;;;;;;;;27.46;69.03;101631.79;107105;1260;61645;-90
2023/08/19 10:40:59;;;;;;;;;;;;;;;27.52;69.08;101631.25;106920;1263;125083;-87
2023/08/19 10:44:24;;;;;;;;;;;;;;;27.56;69.00;101629.14;107001;1260;61266;-87
2023/08/19 10:47:16;;;;;;;;;;;;;;;27.63;69.01;101625.48;106959;1260;124944;-90
2023/08/19 10:49:51;;;;;;;;;;;;;;;27.69;68.83;101625.83;106846;1263;61269;-86
2023/08/19 10:52:31;;;;;;;;;;;;;;;27.81;68.81;101627.79;106958;1260;124996;-89
2023/08/19 10:55:18;;;;;;;;;;;;;;;27.95;68.79;101622.27;107250;1259;66080;-88
2023/08/19 10:57:53;;;;;;;;;;;;;;;28.05;68.16;101620.66;107381;1260;124358;-90
2023/08/19 11:00:38;;;;;;;;;;;;;;;28.04;67.73;101620.73;107618;1260;72508;-88
2023/08/19 11:03:05;;;;;;;;;;;;;;;28.09;67.63;101615.33;107732;1260;61258;-91
2023/08/19 11:05:49;;;;;;;;;;;;;;;28.15;67.33;101615.46;107963;1260;123270;-89
2023/08/19 11:08:23;;;;;;;;;;;;;;;28.13;66.91;101614.83;107194;1260;64585;-89
2023/08/19 11:11:14;;;;;;;;;;;;;;;28.16;67.02;101615.45;107529;1259;123002;-91
2023/08/19 11:13:42;;;;;;;;;;;;;;;28.19;66.74;101615.55;107762;1259;62527;-86
2023/08/19 11:16:28;;;;;;;;;;;;;;;28.12;66.39;101614.68;107739;1262;124345;-92
2023/08/19 11:22:39;;;;;;;;;;;;;;;28.15;65.93;101614.04;108075;1260;123662;-89
2023/08/19 11:32:06;;;;;;;;;;;;;;;28.26;64.52;101608.59;107613;1259;61171;-87
2023/08/19 11:34:33;;;;;;;;;;;;;;;28.25;64.48;101607.54;106935;1261;124937;-86
2023/08/19 11:37:33;;;;;;;;;;;;;;;28.31;64.70;101606.77;106873;1261;66139;-87
2023/08/19 11:44:14;;;;;;;;;;;;;;;28.49;64.00;101605.57;99571;1264;10193020;-87
2023/08/19 11:51:10;;;;;;;;;;;;;;;28.57;62.91;101603.70;107180;1260;61234;-88
2023/08/19 12:01:24;;;;;;;;;;;;;;;28.72;61.95;101597.04;107378;1260;61163;-92
2023/08/19 12:07:30;;;;;;;;;;;;;;;28.71;61.75;101598.14;107003;1260;61121;-86
2023/08/19 12:09:58;;;;;;;;;;;;;;;28.66;61.31;101597.61;107812;1259;123135;-85
2023/08/19 12:13:06;;;;;;;;;;;;;;;28.63;61.42;101596.27;107690;1259;61269;-86
2023/08/19 12:15:56;;;;;;;;;;;;;;;28.63;61.59;101594.11;108467;1259;123295;-92
2023/08/19 12:22:19;;;;;;;;;;;;;;;28.57;61.59;101592.33;107733;1259;124512;-90
2023/08/19 12:27:56;;;;;;;;;;;;;;;28.53;61.55;101590.67;107510;1260;123318;-88
2023/08/19 12:34:05;;;;;;;;;;;;;;;;;;;;;
2023/08/19 12:44:28;;;;;;;;;;;;;;;28.90;60.41;101584.95;107923;1259;61123;-89
2023/08/19 12:54:50;;;;;;;;;;;;;;;28.92;60.21;101580.90;107426;1261;59976;-87
2023/08/19 12:57:17;;;;;;;;;;;;;;;28.93;60.00;101579.41;106725;1260;64163;-86
2023/08/19 13:00:00;;;;;;;;;;;;;;;28.96;60.04;101575.00;106675;1260;124314;-86
2023/08/19 13:02:33;;;;;;;;;;;;;;;28.99;59.92;101576.48;106802;1261;61339;-87
2023/08/19 13:05:10;;;;;;;;;;;;;;;28.97;59.84;101581.45;106908;1265;123501;-85
2023/08/19 13:08:04;;;;;;;;;;;;;;;28.98;59.71;101576.52;106906;1259;61139;-86
2023/08/19 13:14:08;;;;;;;;;;;;;;;29.08;59.30;101569.25;107045;1263;61252;-86
2023/08/19 13:16:56;;;;;;;;;;;;;;;29.06;59.07;101566.79;106628;1264;124321;-86
2023/08/19 13:19:47;;;;;;;;;;;;;;;29.11;58.80;101571.14;106753;1263;66432;-87
2023/08/19 13:22:49;;;;;;;;;;;;;;;29.19;58.35;101574.66;107108;1264;124770;-87
2023/08/19 13:25:28;;;;;;;;;;;;;;;29.25;59.49;101569.69;106934;1264;64085;-87
2023/08/19 13:31:11;;;;;;;;;;;;;;;29.05;61.13;101565.23;107265;1262;61201;-87
2023/08/19 13:34:01;;;;;;;;;;;;;;;28.98;61.39;101558.98;106949;1264;65893;-89
2023/08/19 13:37:01;;;;;;;;;;;;;;;28.89;61.60;101558.81;106881;1264;123988;-88
2023/08/19 13:47:24;;;;;;;;;;;;;;;;;;;;;
2023/08/19 13:50:32;;;;;;;;;;;;;;;28.72;62.09;101558.58;107282;1260;64565;-88
2023/08/19 13:53:01;;;;;;;;;;;;;;;28.73;62.38;101554.36;107113;1260;124425;-88
2023/08/19 13:55:28;;;;;;;;;;;;;;;28.71;62.60;101551.75;107021;1259;62759;-88
2023/08/19 13:58:26;;;;;;;;;;;;;;;28.62;62.89;101547.19;107035;1259;60577;-87
2023/08/19 14:04:13;;;;;;;;;;;;;;;28.36;63.36;101543.60;107321;1259;66127;-90
2023/08/19 14:06:59;;;;;;;;;;;;;;;28.26;63.50;101547.22;107155;1267;61191;-85
2023/08/19 14:26:42;;;;;;;;;;;;;;;27.79;63.89;101536.04;107631;1262;62573;-86
2023/08/19 14:36:17;;;;;;;;;;;;;;;27.67;64.24;101540.77;107597;1260;124961;-90
2023/08/19 14:42:30;;;;;;;;;;;;;;;27.51;64.45;101538.77;107842;1257;125048;-85
2023/08/19 14:45:05;;;;;;;;;;;;;;;27.44;64.51;101538.10;107884;1260;61213;-85
2023/08/19 14:47:33;;;;;;;;;;;;;;;27.39;64.72;101536.84;107552;1261;126082;-85
2023/08/19 14:50:00;;;;;;;;;;;;;;;27.35;64.98;101539.14;107937;1261;64752;-87
2023/08/19 14:52:26;;;;;;;;;;;;;;;27.30;65.10;101539.29;107863;1260;123960;-87
2023/08/19 14:54:55;;;;;;;;;;;;;;;27.26;65.20;101541.39;107518;1261;63465;-87
2023/08/19 14:57:22;;;;;;;;;;;;;;;27.24;65.39;101542.90;107688;1261;61709;-84
2023/08/19 14:59:49;;;;;;;;;;;;;;;27.21;65.50;101541.54;107786;1259;124767;-86
2023/08/19 15:02:18;;;;;;;;;;;;;;;27.19;65.74;101540.86;107997;1260;64553;-84